Time;durP1;ratioP1;P1;durP2;ratioP2;P2;SDS_P1;SDS_P2;PMS_P1;PMS_P2;Temp;Humidity;BMP_temperature;BMP_pressure;BME280_temperature;BME280_humidity;BME280_pressure;Samples;Min_cycle;Max_cycle;Signal;HPM_P1;HPM_P2
2023/10/04 00:02:09;;;;;;;0.20;0.00;;;;;;;;;;5007533;28;20071;-80
2023/10/04 00:04:36;;;;;;;0.20;0.00;;;;;;;;;;5009839;28;20191;-79
2023/10/04 00:07:07;;;;;;;0.20;0.10;;;;;;;;;;5008382;28;20041;-81
2023/10/04 00:09:33;;;;;;;0.20;0.00;;;;;;;;;;5009872;28;20033;-79
2023/10/04 00:11:59;;;;;;;0.20;0.10;;;;;;;;;;5023506;28;20083;-80
2023/10/04 00:14:26;;;;;;;0.20;0.00;;;;;;;;;;5024170;28;20048;-81
2023/10/04 00:16:53;;;;;;;0.20;0.10;;;;;;;;;;5007317;28;20037;-79
2023/10/04 00:19:19;;;;;;;1.15;0.88;;;;;;;;;;5006241;28;20047;-82
2023/10/04 00:21:45;;;;;;;0.20;0.10;;;;;;;;;;5007264;28;20068;-80
2023/10/04 00:24:13;;;;;;;0.20;0.00;;;;;;;;;;5022337;28;20033;-79
2023/10/04 00:26:41;;;;;;;0.20;0.10;;;;;;;;;;5021874;28;20038;-79
2023/10/04 00:29:08;;;;;;;0.20;0.00;;;;;;;;;;5020330;28;20116;-80
2023/10/04 00:31:36;;;;;;;0.20;0.00;;;;;;;;;;5023264;28;21180;-79
2023/10/04 00:34:03;;;;;;;0.20;0.10;;;;;;;;;;5005096;28;20038;-81
2023/10/04 00:36:29;;;;;;;0.20;0.00;;;;;;;;;;5019336;28;20510;-80
2023/10/04 00:38:55;;;;;;;0.20;0.00;;;;;;;;;;5006740;28;20409;-79
2023/10/04 00:41:22;;;;;;;0.20;0.10;;;;;;;;;;5016721;28;20033;-80
2023/10/04 00:43:52;;;;;;;0.20;0.10;;;;;;;;;;5023168;28;20049;-80
2023/10/04 00:46:19;;;;;;;0.20;0.00;;;;;;;;;;5017267;28;20536;-78
2023/10/04 00:48:46;;;;;;;0.20;0.05;;;;;;;;;;5006012;28;20456;-80
2023/10/04 00:51:13;;;;;;;0.63;0.20;;;;;;;;;;5021489;28;20401;-79
2023/10/04 00:53:39;;;;;;;0.20;0.10;;;;;;;;;;5026160;28;20049;-80
2023/10/04 00:56:08;;;;;;;0.20;0.10;;;;;;;;;;5003940;28;20326;-80
2023/10/04 00:58:34;;;;;;;0.20;0.00;;;;;;;;;;5022720;28;20080;-78
2023/10/04 01:01:00;;;;;;;0.20;0.10;;;;;;;;;;5023664;28;20041;-79
2023/10/04 01:03:31;;;;;;;0.20;0.00;;;;;;;;;;5025286;28;20476;-79
2023/10/04 01:05:58;;;;;;;0.20;0.00;;;;;;;;;;5006432;28;20033;-78
2023/10/04 01:08:24;;;;;;;0.20;0.10;;;;;;;;;;5024183;28;20405;-79
2023/10/04 01:10:53;;;;;;;0.20;0.00;;;;;;;;;;5010080;28;20506;-78
2023/10/04 01:13:22;;;;;;;0.20;0.10;;;;;;;;;;5024755;28;20041;-79
2023/10/04 01:15:54;;;;;;;0.20;0.00;;;;;;;;;;5005530;28;20041;-78
2023/10/04 01:18:21;;;;;;;0.20;0.00;;;;;;;;;;5009832;28;20106;-78
2023/10/04 01:20:48;;;;;;;0.20;0.00;;;;;;;;;;5005553;28;20044;-79
2023/10/04 01:23:14;;;;;;;0.20;0.00;;;;;;;;;;5022443;28;20570;-79
2023/10/04 01:25:41;;;;;;;0.20;0.10;;;;;;;;;;5038710;28;20046;-78
2023/10/04 01:28:12;;;;;;;0.20;0.20;;;;;;;;;;5037886;28;20044;-80
2023/10/04 01:30:41;;;;;;;0.20;0.00;;;;;;;;;;5005758;28;20128;-78
2023/10/04 01:33:15;;;;;;;0.20;0.00;;;;;;;;;;5023431;28;20102;-80
2023/10/04 01:35:41;;;;;;;0.20;0.00;;;;;;;;;;5023275;28;20044;-81
2023/10/04 01:38:07;;;;;;;0.20;0.03;;;;;;;;;;5022275;28;20576;-80
2023/10/04 01:40:35;;;;;;;1.33;0.63;;;;;;;;;;5023116;28;20030;-81
2023/10/04 01:43:01;;;;;;;0.20;0.00;;;;;;;;;;5003806;28;20041;-80
2023/10/04 01:45:27;;;;;;;0.20;0.00;;;;;;;;;;5017897;28;20409;-78
2023/10/04 01:47:53;;;;;;;0.20;0.10;;;;;;;;;;5004907;28;20029;-78
2023/10/04 01:50:19;;;;;;;0.20;0.10;;;;;;;;;;5019149;28;20068;-79
2023/10/04 01:52:45;;;;;;;0.20;0.00;;;;;;;;;;5006497;28;20149;-80
2023/10/04 01:55:12;;;;;;;0.20;0.03;;;;;;;;;;5000896;28;20042;-82
2023/10/04 01:57:39;;;;;;;0.20;0.10;;;;;;;;;;5007280;28;20469;-80
2023/10/04 02:00:07;;;;;;;0.20;0.00;;;;;;;;;;5019971;28;20033;-79
2023/10/04 02:02:33;;;;;;;0.20;0.00;;;;;;;;;;5002877;28;20038;-78
2023/10/04 02:05:00;;;;;;;0.20;0.00;;;;;;;;;;5024043;28;20049;-79
2023/10/04 02:07:27;;;;;;;0.20;0.00;;;;;;;;;;5004240;28;20030;-79
2023/10/04 02:09:53;;;;;;;0.20;0.10;;;;;;;;;;5019921;28;20042;-79
2023/10/04 02:12:20;;;;;;;0.20;0.00;;;;;;;;;;5021293;28;20037;-80
2023/10/04 02:14:46;;;;;;;0.20;0.00;;;;;;;;;;5020269;28;20065;-82
2023/10/04 02:17:16;;;;;;;0.20;0.08;;;;;;;;;;5009152;28;20065;-80
2023/10/04 02:19:43;;;;;;;0.20;0.10;;;;;;;;;;5031656;28;21031;-80
2023/10/04 02:22:10;;;;;;;0.20;0.00;;;;;;;;;;5030659;28;20041;-79
2023/10/04 02:24:38;;;;;;;0.20;0.08;;;;;;;;;;5036248;28;20052;-81
2023/10/04 02:27:07;;;;;;;0.20;0.00;;;;;;;;;;5018155;28;20041;-79
2023/10/04 02:29:34;;;;;;;0.20;0.10;;;;;;;;;;5028065;28;20041;-81
2023/10/04 02:32:00;;;;;;;0.20;0.00;;;;;;;;;;5013517;28;20038;-78
2023/10/04 02:34:27;;;;;;;0.20;0.10;;;;;;;;;;5014496;28;20575;-78
2023/10/04 02:36:55;;;;;;;0.73;0.45;;;;;;;;;;5029647;28;20071;-79
2023/10/04 02:39:23;;;;;;;0.20;0.10;;;;;;;;;;5011168;28;20452;-78
2023/10/04 02:41:50;;;;;;;0.20;0.00;;;;;;;;;;5019569;28;20499;-79
2023/10/04 02:44:17;;;;;;;0.20;0.00;;;;;;;;;;5009580;28;20045;-80
2023/10/04 02:46:45;;;;;;;0.20;0.10;;;;;;;;;;5008479;28;20111;-80
2023/10/04 02:49:11;;;;;;;0.35;0.30;;;;;;;;;;5039772;28;20046;-79
2023/10/04 02:51:37;;;;;;;0.20;0.00;;;;;;;;;;5039589;28;20050;-80
2023/10/04 02:54:06;;;;;;;0.20;0.00;;;;;;;;;;5021024;28;20086;-79
2023/10/04 02:56:41;;;;;;;0.20;0.10;;;;;;;;;;5025163;28;20065;-79
2023/10/04 02:59:07;;;;;;;0.20;0.10;;;;;;;;;;5023881;28;20049;-80
2023/10/04 03:01:33;;;;;;;0.20;0.10;;;;;;;;;;5009784;28;20030;-80
2023/10/04 03:03:59;;;;;;;0.20;0.00;;;;;;;;;;5024361;28;20096;-79
2023/10/04 03:06:26;;;;;;;0.20;0.00;;;;;;;;;;5026484;28;20521;-79
2023/10/04 03:08:52;;;;;;;0.20;0.00;;;;;;;;;;5013583;28;20033;-81
2023/10/04 03:11:19;;;;;;;0.20;0.10;;;;;;;;;;5013342;28;20083;-79
2023/10/04 03:13:47;;;;;;;0.20;0.00;;;;;;;;;;5006039;28;20049;-79
2023/10/04 03:16:14;;;;;;;0.20;0.10;;;;;;;;;;5014197;28;20056;-80
2023/10/04 03:18:40;;;;;;;0.20;0.10;;;;;;;;;;5026911;28;20378;-79
2023/10/04 03:23:33;;;;;;;0.20;0.00;;;;;;;;;;5030262;28;20045;-79
2023/10/04 03:26:01;;;;;;;0.20;0.10;;;;;;;;;;5026286;28;20413;-79
2023/10/04 03:28:32;;;;;;;0.20;0.10;;;;;;;;;;5012895;28;20108;-79
2023/10/04 03:31:03;;;;;;;0.20;0.05;;;;;;;;;;5013506;28;20056;-80
2023/10/04 03:33:35;;;;;;;0.20;0.10;;;;;;;;;;5042745;28;20524;-80
2023/10/04 03:36:05;;;;;;;0.20;0.10;;;;;;;;;;5029406;28;20099;-79
2023/10/04 03:38:33;;;;;;;0.20;0.00;;;;;;;;;;5014089;28;20174;-80
2023/10/04 03:40:59;;;;;;;0.20;0.00;;;;;;;;;;5010992;28;20180;-78
2023/10/04 03:43:25;;;;;;;0.20;0.05;;;;;;;;;;5009547;28;21082;-80
2023/10/04 03:45:51;;;;;;;0.20;0.00;;;;;;;;;;5008521;28;20033;-80
2023/10/04 03:48:17;;;;;;;0.20;0.00;;;;;;;;;;5012267;28;20048;-78
2023/10/04 03:50:48;;;;;;;0.20;0.10;;;;;;;;;;5009166;28;20071;-79
2023/10/04 03:53:14;;;;;;;0.20;0.00;;;;;;;;;;5029072;28;20034;-80
2023/10/04 03:55:42;;;;;;;0.20;0.10;;;;;;;;;;5013246;28;20441;-80
2023/10/04 03:58:09;;;;;;;0.20;0.10;;;;;;;;;;5028171;28;20120;-80
2023/10/04 04:00:36;;;;;;;0.20;0.10;;;;;;;;;;5011644;28;20045;-79
2023/10/04 04:03:03;;;;;;;0.20;0.10;;;;;;;;;;5027283;28;20033;-80
2023/10/04 04:05:30;;;;;;;0.57;0.55;;;;;;;;;;5027817;28;20359;-80
2023/10/04 04:07:57;;;;;;;0.20;0.20;;;;;;;;;;5029465;28;20051;-80
2023/10/04 04:10:24;;;;;;;0.20;0.10;;;;;;;;;;5028807;28;20033;-80
2023/10/04 04:12:50;;;;;;;0.20;0.10;;;;;;;;;;5020749;28;20057;-80
2023/10/04 04:15:19;;;;;;;0.20;0.00;;;;;;;;;;5022357;28;20053;-79
2023/10/04 04:17:46;;;;;;;0.40;0.20;;;;;;;;;;5026384;28;20795;-80
2023/10/04 04:20:16;;;;;;;0.20;0.10;;;;;;;;;;5013117;28;20037;-80
2023/10/04 04:22:50;;;;;;;0.20;0.00;;;;;;;;;;5006371;28;20057;-80
2023/10/04 04:25:20;;;;;;;0.20;0.17;;;;;;;;;;5023960;28;20057;-80
2023/10/04 04:27:52;;;;;;;0.20;0.10;;;;;;;;;;5009558;28;20033;-80
2023/10/04 04:30:21;;;;;;;0.20;0.10;;;;;;;;;;5009494;28;20037;-79
2023/10/04 04:32:56;;;;;;;1.10;0.32;;;;;;;;;;5022613;28;20045;-80
2023/10/04 04:35:39;;;;;;;0.20;0.05;;;;;;;;;;5007938;28;20045;-82
2023/10/04 04:38:14;;;;;;;0.20;0.00;;;;;;;;;;5026222;28;20080;-78
2023/10/04 04:40:44;;;;;;;0.20;0.10;;;;;;;;;;5026118;28;20041;-80
2023/10/04 04:45:56;;;;;;;0.20;0.10;;;;;;;;;;5021058;28;20122;-78
2023/10/04 04:48:26;;;;;;;0.20;0.00;;;;;;;;;;5025700;28;20029;-80
2023/10/04 04:50:54;;;;;;;0.20;0.10;;;;;;;;;;5026831;28;20057;-81
2023/10/04 04:53:22;;;;;;;0.52;0.38;;;;;;;;;;5011197;28;20056;-78
2023/10/04 04:55:49;;;;;;;0.20;0.10;;;;;;;;;;5025899;28;20044;-79
2023/10/04 04:58:15;;;;;;;0.20;0.10;;;;;;;;;;5012082;28;20037;-78
2023/10/04 05:00:43;;;;;;;0.20;0.03;;;;;;;;;;5010297;28;20131;-81
2023/10/04 05:03:10;;;;;;;0.20;0.00;;;;;;;;;;5025358;28;20466;-80
2023/10/04 05:05:36;;;;;;;0.20;0.10;;;;;;;;;;5037614;28;20076;-78
2023/10/04 05:08:02;;;;;;;0.20;0.00;;;;;;;;;;5022504;28;20052;-79
2023/10/04 05:10:34;;;;;;;0.20;0.00;;;;;;;;;;5009712;28;20041;-80
2023/10/04 05:13:01;;;;;;;0.20;0.10;;;;;;;;;;5032081;28;20412;-81
2023/10/04 05:15:34;;;;;;;0.20;0.10;;;;;;;;;;5021898;28;20103;-79
2023/10/04 05:18:06;;;;;;;0.20;0.10;;;;;;;;;;5024418;28;20606;-80
2023/10/04 05:20:33;;;;;;;0.20;0.00;;;;;;;;;;5023982;28;20041;-78
2023/10/04 05:23:00;;;;;;;0.20;0.10;;;;;;;;;;5028682;28;20045;-81
2023/10/04 05:25:27;;;;;;;0.20;0.00;;;;;;;;;;5021194;28;20469;-80
2023/10/04 05:27:54;;;;;;;0.20;0.00;;;;;;;;;;5023060;28;20079;-81
2023/10/04 05:30:20;;;;;;;0.20;0.10;;;;;;;;;;5008948;28;20514;-80
2023/10/04 05:32:46;;;;;;;0.40;0.38;;;;;;;;;;5004614;28;20046;-79
2023/10/04 05:35:13;;;;;;;0.20;0.10;;;;;;;;;;5021430;28;20065;-80
2023/10/04 05:37:44;;;;;;;0.20;0.10;;;;;;;;;;5005851;28;20052;-82
2023/10/04 05:40:16;;;;;;;0.20;0.00;;;;;;;;;;5007017;28;20041;-80
2023/10/04 05:42:44;;;;;;;0.20;0.00;;;;;;;;;;5027073;28;20044;-81
2023/10/04 05:45:13;;;;;;;0.20;0.10;;;;;;;;;;5029140;28;20481;-81
2023/10/04 05:47:39;;;;;;;0.20;0.00;;;;;;;;;;5028085;28;20041;-80
2023/10/04 05:50:10;;;;;;;0.75;0.75;;;;;;;;;;5016349;28;20052;-81
2023/10/04 05:52:36;;;;;;;0.20;0.10;;;;;;;;;;5028746;28;20053;-80
2023/10/04 05:55:03;;;;;;;0.20;0.03;;;;;;;;;;5028647;28;20557;-80
2023/10/04 05:57:29;;;;;;;0.20;0.10;;;;;;;;;;5031072;28;20404;-81
2023/10/04 05:59:55;;;;;;;0.20;0.10;;;;;;;;;;5005141;23;20140;-83
2023/10/04 06:02:22;;;;;;;0.20;0.00;;;;;;;;;;4988348;28;20085;-82
2023/10/04 06:04:49;;;;;;;0.20;0.08;;;;;;;;;;4969958;28;20451;-85
2023/10/04 06:07:15;;;;;;;0.47;0.47;;;;;;;;;;5014690;28;20483;-85
2023/10/04 06:09:42;;;;;;;0.20;0.00;;;;;;;;;;5014909;28;20046;-85
2023/10/04 06:12:08;;;;;;;0.22;0.20;;;;;;;;;;5012920;28;20517;-84
2023/10/04 06:14:36;;;;;;;0.22;0.20;;;;;;;;;;4999383;28;20069;-84
2023/10/04 06:17:03;;;;;;;0.20;0.00;;;;;;;;;;4991036;28;20129;-83
2023/10/04 06:19:30;;;;;;;0.20;0.10;;;;;;;;;;4964718;28;20097;-84
2023/10/04 06:21:56;;;;;;;0.20;0.00;;;;;;;;;;4981417;28;20585;-86
2023/10/04 06:24:23;;;;;;;0.20;0.13;;;;;;;;;;4995772;28;20541;-85
2023/10/04 06:26:49;;;;;;;0.20;0.10;;;;;;;;;;4981861;28;20097;-84
2023/10/04 06:29:15;;;;;;;0.20;0.10;;;;;;;;;;4980684;28;20050;-86
2023/10/04 06:31:41;;;;;;;0.20;0.00;;;;;;;;;;4996605;28;20042;-84
2023/10/04 06:34:07;;;;;;;0.20;0.10;;;;;;;;;;5003300;28;20042;-86
2023/10/04 06:36:34;;;;;;;0.20;0.00;;;;;;;;;;4978772;28;20501;-84
2023/10/04 06:39:00;;;;;;;0.20;0.10;;;;;;;;;;4986352;28;20040;-85
2023/10/04 06:41:26;;;;;;;0.20;0.10;;;;;;;;;;4998056;28;20038;-85
2023/10/04 06:43:53;;;;;;;0.20;0.00;;;;;;;;;;4985513;28;20158;-86
2023/10/04 06:46:19;;;;;;;0.20;0.10;;;;;;;;;;4981498;28;20039;-85
2023/10/04 06:48:45;;;;;;;0.20;0.00;;;;;;;;;;5000306;28;20038;-86
2023/10/04 06:51:17;;;;;;;0.20;0.00;;;;;;;;;;5002463;28;20042;-85
2023/10/04 06:54:05;;;;;;;0.20;0.00;;;;;;;;;;5011781;28;20054;-85
2023/10/04 06:56:31;;;;;;;0.20;0.00;;;;;;;;;;4974010;28;20402;-84
2023/10/04 06:59:00;;;;;;;0.20;0.00;;;;;;;;;;5003401;28;20049;-82
2023/10/04 07:01:26;;;;;;;0.20;0.10;;;;;;;;;;4970858;28;20040;-83
2023/10/04 07:03:52;;;;;;;0.20;0.00;;;;;;;;;;4989764;28;20042;-87
2023/10/04 07:06:18;;;;;;;0.20;0.00;;;;;;;;;;4975449;28;20465;-85
2023/10/04 07:08:44;;;;;;;0.20;0.10;;;;;;;;;;4984042;28;20121;-84
2023/10/04 07:11:11;;;;;;;0.20;0.10;;;;;;;;;;4996811;28;20128;-85
2023/10/04 07:13:39;;;;;;;0.20;0.00;;;;;;;;;;4986092;28;20046;-84
2023/10/04 07:16:05;;;;;;;0.20;0.00;;;;;;;;;;4989305;28;20050;-85
2023/10/04 07:18:31;;;;;;;0.20;0.10;;;;;;;;;;4973154;28;20080;-85
2023/10/04 07:20:57;;;;;;;0.20;0.08;;;;;;;;;;4971643;28;20351;-84
2023/10/04 07:23:23;;;;;;;0.20;0.10;;;;;;;;;;4991609;28;20034;-86
2023/10/04 07:25:50;;;;;;;0.20;0.10;;;;;;;;;;4965893;28;20049;-86
2023/10/04 07:28:16;;;;;;;0.20;0.10;;;;;;;;;;4973754;28;20096;-85
2023/10/04 07:30:43;;;;;;;0.20;0.00;;;;;;;;;;4986155;28;20097;-83
2023/10/04 07:33:09;;;;;;;0.20;0.00;;;;;;;;;;5018618;28;20096;-87
2023/10/04 07:35:39;;;;;;;0.20;0.10;;;;;;;;;;4999445;28;20049;-83
2023/10/04 07:38:05;;;;;;;0.20;0.00;;;;;;;;;;4987161;28;20076;-86
2023/10/04 07:40:35;;;;;;;0.35;0.35;;;;;;;;;;4987496;28;20070;-83
2023/10/04 07:43:10;;;;;;;0.20;0.10;;;;;;;;;;4970576;28;20447;-86
2023/10/04 07:45:45;;;;;;;0.20;0.00;;;;;;;;;;5003415;28;20478;-87
2023/10/04 07:48:15;;;;;;;0.20;0.00;;;;;;;;;;4995945;28;20045;-84
2023/10/04 07:50:41;;;;;;;0.20;0.10;;;;;;;;;;4994087;28;20042;-84
2023/10/04 07:53:21;;;;;;;0.20;0.00;;;;;;;;;;4991109;28;20046;-83
2023/10/04 07:55:55;;;;;;;0.20;0.10;;;;;;;;;;4998182;28;20051;-83
2023/10/04 07:58:37;;;;;;;0.20;0.10;;;;;;;;;;4963919;28;20071;-83
2023/10/04 08:01:19;;;;;;;0.20;0.10;;;;;;;;;;5009280;28;20047;-84
2023/10/04 08:07:12;;;;;;;0.20;0.00;;;;;;;;;;4968593;28;20133;-84
2023/10/04 08:09:55;;;;;;;1.75;0.52;;;;;;;;;;4971369;28;20074;-82
2023/10/04 08:12:26;;;;;;;0.20;0.08;;;;;;;;;;4968894;28;20038;-82
2023/10/04 08:14:56;;;;;;;0.20;0.00;;;;;;;;;;4985797;28;20038;-84
2023/10/04 08:17:23;;;;;;;0.20;0.00;;;;;;;;;;4995902;28;20042;-83
2023/10/04 08:19:49;;;;;;;0.20;0.00;;;;;;;;;;5017365;28;20038;-82
2023/10/04 08:22:16;;;;;;;0.20;0.20;;;;;;;;;;4999325;28;20077;-86
2023/10/04 08:24:44;;;;;;;0.20;0.10;;;;;;;;;;4999984;28;20457;-84
2023/10/04 08:27:10;;;;;;;0.22;0.05;;;;;;;;;;4973719;28;20045;-84
2023/10/04 08:29:37;;;;;;;0.20;0.00;;;;;;;;;;4976401;28;20052;-85
2023/10/04 08:32:03;;;;;;;1.17;0.85;;;;;;;;;;4997349;28;20046;-83
2023/10/04 08:34:35;;;;;;;0.20;0.00;;;;;;;;;;4990602;28;20066;-85
2023/10/04 08:37:01;;;;;;;3.03;0.30;;;;;;;;;;4980735;28;20046;-86
2023/10/04 08:39:27;;;;;;;0.20;0.10;;;;;;;;;;4989218;28;20129;-84
2023/10/04 08:41:53;;;;;;;0.20;0.00;;;;;;;;;;4996574;28;20054;-83
2023/10/04 08:44:22;;;;;;;0.20;0.10;;;;;;;;;;4986198;28;20038;-83
2023/10/04 08:46:48;;;;;;;0.20;0.00;;;;;;;;;;4993810;28;20039;-85
2023/10/04 08:49:15;;;;;;;0.55;0.55;;;;;;;;;;4999997;28;20038;-84
2023/10/04 08:51:44;;;;;;;0.20;0.03;;;;;;;;;;4974608;28;20046;-84
2023/10/04 08:54:13;;;;;;;0.20;0.10;;;;;;;;;;4999531;28;20392;-83
2023/10/04 08:57:14;;;;;;;0.30;0.22;;;;;;;;;;4999212;28;20073;-84
2023/10/04 08:59:51;;;;;;;0.20;0.00;;;;;;;;;;4997507;28;20141;-85
2023/10/04 09:02:29;;;;;;;0.20;0.10;;;;;;;;;;4967114;28;20573;-87
2023/10/04 09:05:12;;;;;;;0.20;0.00;;;;;;;;;;4994765;28;20111;-83
2023/10/04 09:07:43;;;;;;;0.50;0.35;;;;;;;;;;4990258;28;20073;-84
2023/10/04 09:10:31;;;;;;;0.20;0.00;;;;;;;;;;4982960;28;20078;-83
2023/10/04 09:12:57;;;;;;;;;;;;;;;;;;4984899;28;20050;-88
2023/10/04 09:15:33;;;;;;;0.47;0.17;;;;;;;;;;4963004;28;20678;-84
2023/10/04 09:18:02;;;;;;;0.20;0.00;;;;;;;;;;4983519;28;20042;-83
2023/10/04 09:20:38;;;;;;;0.20;0.10;;;;;;;;;;4999097;28;20077;-84
2023/10/04 09:23:23;;;;;;;0.20;0.03;;;;;;;;;;4968480;28;20089;-83
2023/10/04 09:25:54;;;;;;;0.20;0.13;;;;;;;;;;4994547;28;20426;-83
2023/10/04 09:28:22;;;;;;;0.20;0.10;;;;;;;;;;4977763;28;20089;-85
2023/10/04 09:30:52;;;;;;;0.20;0.00;;;;;;;;;;4996894;28;20101;-86
2023/10/04 09:33:35;;;;;;;0.82;0.43;;;;;;;;;;5012212;28;20047;-83
2023/10/04 09:36:01;;;;;;;0.20;0.10;;;;;;;;;;4999203;28;20311;-84
2023/10/04 09:38:30;;;;;;;0.20;0.10;;;;;;;;;;5016337;28;20065;-85
2023/10/04 09:41:10;;;;;;;0.20;0.00;;;;;;;;;;4981514;28;20377;-84
2023/10/04 09:43:45;;;;;;;0.20;0.08;;;;;;;;;;4995817;28;20066;-83
2023/10/04 09:46:19;;;;;;;0.20;0.10;;;;;;;;;;4972090;28;20062;-82
2023/10/04 09:48:45;;;;;;;0.20;0.20;;;;;;;;;;4997190;28;20074;-83
2023/10/04 09:51:12;;;;;;;0.20;0.10;;;;;;;;;;4987850;28;20046;-84
2023/10/04 09:53:39;;;;;;;0.20;0.10;;;;;;;;;;5015361;28;20042;-87
2023/10/04 09:56:11;;;;;;;0.20;0.20;;;;;;;;;;4970152;28;20134;-84
2023/10/04 09:58:52;;;;;;;0.20;0.10;;;;;;;;;;4991802;28;20082;-82
2023/10/04 10:01:24;;;;;;;0.25;0.25;;;;;;;;;;4982816;28;20038;-83
2023/10/04 10:04:02;;;;;;;0.20;0.08;;;;;;;;;;4981742;28;20379;-87
2023/10/04 10:06:39;;;;;;;0.35;0.35;;;;;;;;;;5001860;28;20043;-84
2023/10/04 10:09:25;;;;;;;0.30;0.20;;;;;;;;;;5007236;28;20070;-84
2023/10/04 10:12:02;;;;;;;0.20;0.00;;;;;;;;;;5003122;28;20046;-86
2023/10/04 10:14:45;;;;;;;1.17;0.40;;;;;;;;;;5004451;28;20446;-85
2023/10/04 10:17:12;;;;;;;0.20;0.20;;;;;;;;;;5003007;28;20120;-86
2023/10/04 10:19:38;;;;;;;0.20;0.10;;;;;;;;;;4992823;28;20486;-84
2023/10/04 10:22:05;;;;;;;0.20;0.20;;;;;;;;;;4987621;28;20136;-85
2023/10/04 10:24:31;;;;;;;0.20;0.00;;;;;;;;;;4992927;28;20041;-85
2023/10/04 10:27:04;;;;;;;0.20;0.08;;;;;;;;;;4990207;28;20061;-84
2023/10/04 10:29:31;;;;;;;0.90;0.45;;;;;;;;;;5005515;28;20133;-86
2023/10/04 10:31:57;;;;;;;0.43;0.43;;;;;;;;;;5001775;28;20133;-85
2023/10/04 10:34:23;;;;;;;0.20;0.10;;;;;;;;;;4981988;28;20050;-84
2023/10/04 10:37:08;;;;;;;0.40;0.32;;;;;;;;;;5007197;28;20262;-83
2023/10/04 10:39:42;;;;;;;0.20;0.00;;;;;;;;;;5021776;28;20434;-84
2023/10/04 10:42:11;;;;;;;0.30;0.30;;;;;;;;;;4982440;28;20052;-86
2023/10/04 10:44:39;;;;;;;0.20;0.05;;;;;;;;;;5002071;28;20035;-85
2023/10/04 10:47:15;;;;;;;0.20;0.20;;;;;;;;;;4997063;28;20072;-84
2023/10/04 10:49:41;;;;;;;0.20;0.10;;;;;;;;;;4979095;28;20043;-86
2023/10/04 10:52:26;;;;;;;0.65;0.47;;;;;;;;;;5004077;28;20073;-84
2023/10/04 10:54:53;;;;;;;0.25;0.15;;;;;;;;;;5006356;28;20293;-84
2023/10/04 10:57:23;;;;;;;1.90;0.47;;;;;;;;;;5003768;28;20366;-85
2023/10/04 10:59:51;;;;;;;0.20;0.13;;;;;;;;;;4997227;28;20054;-84
2023/10/04 11:02:17;;;;;;;0.20;0.10;;;;;;;;;;5006716;28;20038;-86
2023/10/04 11:04:43;;;;;;;0.20;0.10;;;;;;;;;;5022213;28;20069;-85
2023/10/04 11:07:11;;;;;;;0.20;0.00;;;;;;;;;;4994550;28;20092;-84
2023/10/04 11:09:49;;;;;;;0.20;0.00;;;;;;;;;;4986856;28;20053;-86
2023/10/04 11:12:30;;;;;;;0.63;0.63;;;;;;;;;;5016419;28;20040;-86
2023/10/04 11:15:17;;;;;;;0.20;0.20;;;;;;;;;;4988273;28;20043;-84
2023/10/04 11:17:43;;;;;;;1.05;0.30;;;;;;;;;;4985019;28;20057;-87
2023/10/04 11:20:11;;;;;;;0.20;0.17;;;;;;;;;;4997684;28;20529;-86
2023/10/04 11:22:49;;;;;;;0.20;0.10;;;;;;;;;;4989157;28;20041;-84
2023/10/04 11:25:18;;;;;;;0.20;0.08;;;;;;;;;;4971000;28;20039;-85
2023/10/04 11:27:51;;;;;;;0.20;0.17;;;;;;;;;;5002478;28;20041;-85
2023/10/04 11:30:21;;;;;;;0.30;0.30;;;;;;;;;;4971713;28;20129;-85
2023/10/04 11:32:47;;;;;;;0.57;0.57;;;;;;;;;;5002942;28;20100;-84
2023/10/04 11:35:19;;;;;;;2.05;1.50;;;;;;;;;;5003511;28;20041;-87
2023/10/04 11:38:05;;;;;;;0.63;0.30;;;;;;;;;;4974601;28;20117;-88
2023/10/04 11:40:39;;;;;;;1.42;0.45;;;;;;;;;;4996608;28;20143;-86
2023/10/04 11:43:12;;;;;;;0.20;0.00;;;;;;;;;;4988996;28;20093;-86
2023/10/04 11:48:31;;;;;;;0.30;0.28;;;;;;;;;;4982005;28;20050;-85
2023/10/04 11:50:57;;;;;;;0.40;0.30;;;;;;;;;;4987942;28;20038;-83
2023/10/04 11:56:38;;;;;;;0.20;0.10;;;;;;;;;;4975677;28;20050;-84
2023/10/04 12:01:42;;;;;;;0.20;0.10;;;;;;;;;;5046576;28;20129;-79
2023/10/04 12:04:09;;;;;;;0.20;0.00;;;;;;;;;;5045690;28;20052;-82
2023/10/04 12:06:36;;;;;;;0.20;0.10;;;;;;;;;;5047944;28;20563;-81
2023/10/04 12:09:06;;;;;;;0.32;0.32;;;;;;;;;;5062549;28;20056;-81
2023/10/04 12:11:36;;;;;;;0.20;0.10;;;;;;;;;;5045908;28;20052;-81
2023/10/04 12:14:09;;;;;;;0.20;0.08;;;;;;;;;;5047148;28;20044;-81
2023/10/04 12:16:41;;;;;;;0.38;0.38;;;;;;;;;;5045469;28;20051;-81
2023/10/04 12:19:07;;;;;;;;;;;;;;;;;;5053142;28;20033;-80
2023/10/04 12:21:35;;;;;;;0.20;0.10;;;;;;;;;;5039083;28;20015;-80
2023/10/04 12:24:02;;;;;;;0.30;0.28;;;;;;;;;;5049909;28;20098;-82
2023/10/04 12:26:30;;;;;;;0.20;0.10;;;;;;;;;;5051585;28;20036;-80
2023/10/04 12:28:57;;;;;;;0.30;0.28;;;;;;;;;;5050065;28;20076;-81
2023/10/04 12:31:23;;;;;;;0.98;0.93;;;;;;;;;;5048684;28;20068;-79
2023/10/04 12:33:51;;;;;;;0.73;0.63;;;;;;;;;;5046578;28;20040;-80
2023/10/04 12:36:17;;;;;;;0.20;0.10;;;;;;;;;;5048483;28;20041;-79
2023/10/04 12:38:43;;;;;;;0.20;0.10;;;;;;;;;;5049996;28;20033;-83
2023/10/04 12:41:10;;;;;;;0.20;0.10;;;;;;;;;;5029989;28;20044;-81
2023/10/04 12:43:36;;;;;;;0.20;0.10;;;;;;;;;;5028933;28;20173;-81
2023/10/04 12:46:02;;;;;;;0.20;0.10;;;;;;;;;;5045763;28;20033;-81
2023/10/04 12:48:28;;;;;;;0.20;0.00;;;;;;;;;;5045837;28;20048;-80
2023/10/04 12:50:55;;;;;;;0.20;0.20;;;;;;;;;;5049330;28;20053;-79
2023/10/04 12:53:22;;;;;;;0.20;0.00;;;;;;;;;;5046142;28;20096;-81
2023/10/04 12:55:48;;;;;;;0.20;0.00;;;;;;;;;;5029543;28;20091;-81
2023/10/04 12:58:15;;;;;;;0.20;0.10;;;;;;;;;;5048217;28;20040;-82
2023/10/04 13:00:44;;;;;;;0.20;0.08;;;;;;;;;;5049163;28;20404;-79
2023/10/04 13:03:11;;;;;;;0.20;0.00;;;;;;;;;;5030911;28;20041;-81
2023/10/04 13:05:38;;;;;;;0.20;0.10;;;;;;;;;;5049875;28;20068;-82
2023/10/04 13:08:20;;;;;;;0.20;0.00;;;;;;;;;;5049442;28;20029;-80
2023/10/04 13:10:47;;;;;;;0.20;0.10;;;;;;;;;;5033254;28;20036;-79
2023/10/04 13:13:13;;;;;;;3.40;0.82;;;;;;;;;;5051100;28;20048;-82
2023/10/04 13:15:39;;;;;;;0.20;0.10;;;;;;;;;;5047832;28;20049;-83
2023/10/04 13:18:08;;;;;;;0.20;0.20;;;;;;;;;;5032137;28;20090;-81
2023/10/04 13:20:37;;;;;;;0.22;0.10;;;;;;;;;;5032838;28;20504;-80
2023/10/04 13:23:05;;;;;;;0.43;0.30;;;;;;;;;;5045374;28;20750;-82
2023/10/04 13:25:32;;;;;;;0.20;0.10;;;;;;;;;;5045184;28;20657;-82
2023/10/04 13:28:00;;;;;;;0.43;0.32;;;;;;;;;;5047706;28;20052;-79
2023/10/04 13:30:27;;;;;;;0.20;0.00;;;;;;;;;;5046762;28;20064;-81
2023/10/04 13:32:54;;;;;;;0.20;0.10;;;;;;;;;;5031797;28;20043;-79
2023/10/04 13:35:20;;;;;;;0.20;0.10;;;;;;;;;;5049276;28;20046;-80
2023/10/04 13:37:52;;;;;;;2.97;0.75;;;;;;;;;;5049034;28;20120;-79
2023/10/04 13:40:19;;;;;;;0.40;0.20;;;;;;;;;;5045143;28;20041;-81
2023/10/04 13:42:50;;;;;;;0.20;0.10;;;;;;;;;;5042118;28;20044;-81
2023/10/04 13:45:16;;;;;;;1.35;0.52;;;;;;;;;;5048468;28;20037;-81
2023/10/04 13:47:42;;;;;;;0.75;0.68;;;;;;;;;;5041603;28;20102;-79
2023/10/04 13:50:09;;;;;;;0.20;0.17;;;;;;;;;;5047047;28;20033;-80
2023/10/04 13:52:35;;;;;;;0.20;0.00;;;;;;;;;;5063458;28;20497;-81
2023/10/04 13:55:01;;;;;;;0.52;0.52;;;;;;;;;;5049533;28;20594;-81
2023/10/04 13:57:27;;;;;;;0.20;0.10;;;;;;;;;;5050161;28;20037;-81
2023/10/04 13:59:53;;;;;;;0.77;0.77;;;;;;;;;;5032416;28;20040;-82
2023/10/04 14:02:19;;;;;;;0.20;0.10;;;;;;;;;;5047892;28;20045;-84
2023/10/04 14:04:46;;;;;;;0.20;0.10;;;;;;;;;;5042458;28;20079;-79
2023/10/04 14:07:13;;;;;;;0.28;0.20;;;;;;;;;;5048668;28;20125;-81
2023/10/04 14:09:39;;;;;;;0.25;0.10;;;;;;;;;;5047020;28;20053;-80
2023/10/04 14:12:06;;;;;;;0.20;0.10;;;;;;;;;;5048728;28;20499;-81
2023/10/04 14:14:32;;;;;;;0.20;0.10;;;;;;;;;;5045023;28;20107;-81
2023/10/04 14:17:05;;;;;;;0.38;0.32;;;;;;;;;;5029511;28;20036;-80
2023/10/04 14:19:36;;;;;;;0.20;0.00;;;;;;;;;;5031554;28;20037;-82
2023/10/04 14:22:05;;;;;;;0.20;0.15;;;;;;;;;;5052734;28;20070;-81
2023/10/04 14:24:32;;;;;;;0.20;0.10;;;;;;;;;;5034478;28;20284;-80
2023/10/04 14:27:01;;;;;;;8.30;1.60;;;;;;;;;;5046059;28;20207;-82
2023/10/04 14:29:27;;;;;;;0.20;0.00;;;;;;;;;;5049341;28;20037;-82
2023/10/04 14:31:54;;;;;;;0.45;0.45;;;;;;;;;;5049260;28;20056;-81
2023/10/04 14:34:21;;;;;;;0.20;0.10;;;;;;;;;;5052021;28;20041;-80
2023/10/04 14:36:48;;;;;;;0.20;0.10;;;;;;;;;;5035716;28;20045;-79
2023/10/04 14:39:14;;;;;;;0.20;0.13;;;;;;;;;;5051265;28;20041;-79
2023/10/04 14:41:41;;;;;;;0.20;0.10;;;;;;;;;;5048042;28;20074;-79
2023/10/04 14:44:08;;;;;;;0.38;0.30;;;;;;;;;;5044993;28;20501;-80
2023/10/04 14:46:34;;;;;;;0.20;0.00;;;;;;;;;;5049740;28;20412;-80
2023/10/04 14:49:00;;;;;;;0.20;0.15;;;;;;;;;;5050650;28;20041;-81
2023/10/04 14:51:26;;;;;;;0.43;0.43;;;;;;;;;;5074238;28;20048;-81
2023/10/04 14:53:53;;;;;;;0.20;0.00;;;;;;;;;;5047368;28;20069;-78
2023/10/04 14:56:19;;;;;;;0.25;0.15;;;;;;;;;;5033548;28;20040;-80
2023/10/04 14:58:44;;;;;;;0.28;0.13;;;;;;;;;;5060766;28;20045;-78
2023/10/04 15:01:14;;;;;;;0.20;0.10;;;;;;;;;;5050500;28;20048;-79
2023/10/04 15:03:42;;;;;;;0.20;0.15;;;;;;;;;;5048996;28;20054;-80
2023/10/04 15:06:13;;;;;;;0.20;0.20;;;;;;;;;;5032848;28;20044;-80
2023/10/04 15:08:39;;;;;;;0.20;0.20;;;;;;;;;;5033415;28;20045;-80
2023/10/04 15:11:06;;;;;;;1.02;1.02;;;;;;;;;;5048267;28;20063;-79